createdAt,value
2023-05-05T00:01:57.879Z,100560.86
2023-05-05T00:04:07.635Z,100555.52
2023-05-05T00:06:16.764Z,100557.17
2023-05-05T00:08:26.169Z,100557.55
2023-05-05T00:10:35.309Z,100554.00
2023-05-05T00:12:44.707Z,100552.77
2023-05-05T00:14:54.314Z,100550.98
2023-05-05T00:17:04.477Z,100549.97
2023-05-05T00:19:14.116Z,100556.89
2023-05-05T00:21:23.288Z,100559.23
2023-05-05T00:23:32.535Z,100559.48
2023-05-05T00:25:41.625Z,100555.38
2023-05-05T00:27:50.889Z,100556.06
2023-05-05T00:29:59.972Z,100553.18
2023-05-05T00:32:09.170Z,100553.98
2023-05-05T00:34:18.302Z,100552.11
2023-05-05T00:36:27.345Z,100547.47
2023-05-05T00:38:36.460Z,100555.20
2023-05-05T00:40:45.568Z,100551.27
2023-05-05T00:42:54.976Z,100547.54
2023-05-05T00:45:04.803Z,100543.41
2023-05-05T00:47:16.310Z,100547.98
2023-05-05T00:49:25.387Z,100543.80
2023-05-05T00:51:34.726Z,100544.63
2023-05-05T00:53:45.643Z,100551.23
2023-05-05T00:55:54.817Z,100554.26
2023-05-05T00:58:04.628Z,100555.58
2023-05-05T01:00:15.668Z,100561.55
2023-05-05T01:02:24.835Z,100558.80
2023-05-05T01:04:33.961Z,100560.63
2023-05-05T01:06:54.178Z,100564.05
2023-05-05T01:09:11.214Z,100566.58
2023-05-05T01:11:28.149Z,100563.35
2023-05-05T01:13:48.864Z,100562.09
2023-05-05T01:16:06.043Z,100559.23
2023-05-05T01:18:33.061Z,100561.58
2023-05-05T01:20:50.635Z,100555.56
2023-05-05T01:23:05.223Z,100560.17
2023-05-05T01:25:40.471Z,100561.95
2023-05-05T01:28:00.244Z,100560.25
2023-05-05T01:30:22.448Z,100554.42
2023-05-05T01:32:31.875Z,100548.40
2023-05-05T01:34:47.207Z,100542.73
2023-05-05T01:37:09.189Z,100536.79
2023-05-05T01:39:20.326Z,100535.63
2023-05-05T01:41:32.132Z,100531.73
2023-05-05T01:43:44.460Z,100534.20
2023-05-05T01:45:56.248Z,100533.90
2023-05-05T01:48:04.738Z,100538.20
2023-05-05T01:50:17.089Z,100539.71
2023-05-05T01:52:27.986Z,100543.60
2023-05-05T01:54:39.913Z,100547.90
2023-05-05T01:56:48.239Z,100546.33
2023-05-05T01:58:59.421Z,100544.15
2023-05-05T02:01:09.172Z,100545.49
2023-05-05T02:03:20.572Z,100548.48
2023-05-05T02:05:31.551Z,100550.20
2023-05-05T02:07:41.067Z,100553.10
2023-05-05T02:09:52.890Z,100551.67
2023-05-05T02:12:03.033Z,100555.11
2023-05-05T02:14:14.151Z,100555.56
2023-05-05T02:16:24.497Z,100555.92
2023-05-05T02:18:36.266Z,100561.23
2023-05-05T02:20:45.774Z,100569.37
2023-05-05T02:22:55.483Z,100575.49
2023-05-05T02:25:04.963Z,100575.44
2023-05-05T02:27:17.503Z,100574.34
2023-05-05T02:29:34.487Z,100576.09
2023-05-05T02:31:49.723Z,100572.64
2023-05-05T02:34:02.878Z,100570.52
2023-05-05T02:36:19.888Z,100573.73
2023-05-05T02:38:34.491Z,100576.70
2023-05-05T02:40:47.277Z,100576.01
2023-05-05T02:43:01.661Z,100581.34
2023-05-05T02:45:16.964Z,100581.04
2023-05-05T02:47:38.221Z,100582.13
2023-05-05T02:49:48.861Z,100580.77
2023-05-05T02:51:58.485Z,100580.09
2023-05-05T02:54:09.889Z,100577.81
2023-05-05T02:56:28.752Z,100583.48
2023-05-05T02:58:47.139Z,100583.43
2023-05-05T03:01:04.202Z,100577.92
2023-05-05T03:03:20.381Z,100575.45
2023-05-05T03:05:37.286Z,100572.55
2023-05-05T03:07:56.529Z,100570.38
2023-05-05T03:10:14.170Z,100575.35
2023-05-05T03:12:37.077Z,100578.91
2023-05-05T03:14:57.072Z,100578.45
2023-05-05T03:17:07.987Z,100581.21
2023-05-05T03:19:19.335Z,100581.08
2023-05-05T03:21:30.812Z,100581.81
2023-05-05T03:23:40.365Z,100584.11
2023-05-05T03:25:54.588Z,100585.46
2023-05-05T03:28:10.432Z,100585.77
2023-05-05T03:30:20.566Z,100583.42
2023-05-05T03:32:32.372Z,100584.30
2023-05-05T03:34:41.918Z,100582.43
2023-05-05T03:36:51.300Z,100583.06
2023-05-05T03:39:00.594Z,100584.95
2023-05-05T03:41:12.299Z,100586.89
2023-05-05T03:43:26.964Z,100587.58
2023-05-05T03:45:36.370Z,100585.20
2023-05-05T03:47:46.513Z,100586.14
2023-05-05T03:49:56.638Z,100585.41
2023-05-05T03:52:07.726Z,100585.08
2023-05-05T03:54:17.409Z,100583.80
2023-05-05T03:56:27.066Z,100593.55
2023-05-05T03:58:36.337Z,100599.59
2023-05-05T04:00:45.746Z,100596.51
2023-05-05T04:02:55.670Z,100599.09
2023-05-05T04:05:06.701Z,100599.77
2023-05-05T04:07:16.123Z,100601.83
2023-05-05T04:09:26.590Z,100605.97
2023-05-05T04:11:35.686Z,100610.74
2023-05-05T04:13:46.357Z,100616.19
2023-05-05T04:15:58.432Z,100620.59
2023-05-05T04:18:06.130Z,100629.52
2023-05-05T04:20:15.917Z,100629.48
2023-05-05T04:22:26.595Z,100631.89
2023-05-05T04:24:35.976Z,100635.45
2023-05-05T04:26:45.081Z,100635.44
2023-05-05T04:28:57.686Z,100641.81
2023-05-05T04:31:08.173Z,100645.86
2023-05-05T04:33:18.684Z,100651.70
2023-05-05T04:35:29.261Z,100649.91
2023-05-05T04:37:40.111Z,100654.24
2023-05-05T04:39:50.195Z,100657.73
2023-05-05T04:41:59.805Z,100659.90
2023-05-05T04:44:09.124Z,100658.75
2023-05-05T04:46:18.370Z,100654.83
2023-05-05T04:48:27.897Z,100652.88
2023-05-05T04:50:37.372Z,100652.63
2023-05-05T04:52:47.266Z,100652.45
2023-05-05T04:54:56.446Z,100651.93
2023-05-05T04:57:05.722Z,100653.31
2023-05-05T04:59:15.069Z,100654.33
2023-05-05T05:01:24.493Z,100658.27
2023-05-05T05:03:33.840Z,100657.48
2023-05-05T05:05:43.073Z,100661.05
2023-05-05T05:07:52.530Z,100653.89
2023-05-05T05:10:01.865Z,100658.39
2023-05-05T05:12:11.283Z,100660.73
2023-05-05T05:14:20.506Z,100659.64
2023-05-05T05:16:30.080Z,100656.63
2023-05-05T05:18:39.425Z,100660.27
2023-05-05T05:20:48.919Z,100659.50
2023-05-05T05:22:58.771Z,100664.05
2023-05-05T05:25:08.781Z,100661.30
2023-05-05T05:27:18.665Z,100667.38
2023-05-05T05:29:28.749Z,100668.26
2023-05-05T05:31:40.221Z,100674.77
2023-05-05T05:33:49.552Z,100674.41
2023-05-05T05:35:59.227Z,100677.26
2023-05-05T05:38:08.386Z,100668.39
2023-05-05T05:40:19.732Z,100669.80
2023-05-05T05:42:29.427Z,100666.20
2023-05-05T05:44:38.807Z,100667.64
2023-05-05T05:46:48.294Z,100664.71
2023-05-05T05:48:57.995Z,100667.38
2023-05-05T05:51:07.825Z,100667.69
2023-05-05T05:53:18.290Z,100669.95
2023-05-05T05:55:27.764Z,100672.02
2023-05-05T05:57:37.634Z,100668.83
2023-05-05T05:59:47.672Z,100664.27
2023-05-05T06:02:00.111Z,100665.38
2023-05-05T06:04:10.007Z,100670.02
2023-05-05T06:06:19.948Z,100676.84
2023-05-05T06:08:29.293Z,100678.25
2023-05-05T06:10:38.862Z,100682.89
2023-05-05T06:12:54.043Z,100683.45
2023-05-05T06:15:03.429Z,100685.07
2023-05-05T06:17:12.610Z,100686.51
2023-05-05T06:19:22.860Z,100694.05
2023-05-05T06:21:32.580Z,100696.09
2023-05-05T06:23:42.568Z,100696.95
2023-05-05T06:25:52.220Z,100694.45
2023-05-05T06:28:01.547Z,100690.52
2023-05-05T06:30:12.669Z,100687.55
2023-05-05T06:32:21.998Z,100689.84
2023-05-05T06:34:30.793Z,100693.93
2023-05-05T06:36:40.040Z,100691.41
2023-05-05T06:38:49.361Z,100694.52
2023-05-05T06:40:59.892Z,100694.12
2023-05-05T06:43:09.120Z,100690.92
2023-05-05T06:45:23.418Z,100686.69
2023-05-05T06:47:32.534Z,100686.02
2023-05-05T06:49:41.614Z,100686.53
2023-05-05T06:51:50.701Z,100684.52
2023-05-05T06:54:00.269Z,100682.05
2023-05-05T06:56:09.998Z,100680.48
2023-05-05T06:58:19.225Z,100682.73
2023-05-05T07:00:29.257Z,100687.20
2023-05-05T07:02:38.418Z,100693.74
2023-05-05T07:04:48.284Z,100693.91
2023-05-05T07:06:58.653Z,100688.27
2023-05-05T07:09:07.767Z,100690.48
2023-05-05T07:11:16.926Z,100691.19
2023-05-05T07:13:26.128Z,100693.59
2023-05-05T07:15:35.426Z,100694.52
2023-05-05T07:17:45.022Z,100691.60
2023-05-05T07:19:55.306Z,100687.59
2023-05-05T07:22:04.620Z,100688.73
2023-05-05T07:24:14.159Z,100687.02
2023-05-05T07:26:24.804Z,100690.80
2023-05-05T07:28:33.896Z,100685.80
2023-05-05T07:30:43.045Z,100685.67
2023-05-05T07:32:52.292Z,100683.42
2023-05-05T07:35:01.714Z,100690.91
2023-05-05T07:37:11.179Z,100687.02
2023-05-05T07:39:21.441Z,100688.58
2023-05-05T07:41:30.655Z,100684.54
2023-05-05T07:43:42.344Z,100689.48
2023-05-05T07:45:53.493Z,100690.11
2023-05-05T07:48:02.781Z,100687.75
2023-05-05T07:50:13.736Z,100688.23
2023-05-05T07:52:33.163Z,100681.98
2023-05-05T07:54:52.860Z,100682.45
2023-05-05T07:57:02.458Z,100683.16
2023-05-05T07:59:11.460Z,100677.13
2023-05-05T08:01:20.852Z,100675.78
2023-05-05T08:03:30.417Z,100683.63
2023-05-05T08:05:39.750Z,100688.27
2023-05-05T08:07:48.867Z,100691.80
2023-05-05T08:09:58.158Z,100694.61
2023-05-05T08:12:07.767Z,100694.81
2023-05-05T08:14:16.802Z,100694.10
2023-05-05T08:16:26.460Z,100692.55
2023-05-05T08:18:37.840Z,100695.27
2023-05-05T08:20:47.195Z,100695.48
2023-05-05T08:22:56.489Z,100694.84
2023-05-05T08:25:06.912Z,100688.98
2023-05-05T08:27:16.204Z,100690.61
2023-05-05T08:29:25.488Z,100698.27
2023-05-05T08:31:38.329Z,100701.39
2023-05-05T08:33:47.548Z,100700.33
2023-05-05T08:35:56.991Z,100697.20
2023-05-05T08:38:06.092Z,100703.78
2023-05-05T08:40:17.221Z,100699.98
2023-05-05T08:42:37.116Z,100699.38
2023-05-05T08:44:48.233Z,100702.91
2023-05-05T08:46:58.481Z,100708.42
2023-05-05T08:49:15.753Z,100705.45
2023-05-05T08:51:28.691Z,100706.61
2023-05-05T08:53:48.782Z,100705.17
2023-05-05T08:55:58.320Z,100705.95
2023-05-05T08:58:08.194Z,100711.89
2023-05-05T09:00:19.931Z,100710.98
2023-05-05T09:02:31.428Z,100711.20
2023-05-05T09:04:40.850Z,100713.61
2023-05-05T09:06:50.009Z,100715.53
2023-05-05T09:08:59.800Z,100719.89
2023-05-05T09:11:09.290Z,100720.98
2023-05-05T09:13:27.811Z,100722.07
2023-05-05T09:15:39.314Z,100725.36
2023-05-05T09:17:48.730Z,100725.87
2023-05-05T09:20:09.695Z,100722.44
2023-05-05T09:22:19.103Z,100726.09
2023-05-05T09:24:29.385Z,100727.79
2023-05-05T09:26:39.827Z,100728.10
2023-05-05T09:28:57.101Z,100721.52
2023-05-05T09:31:17.839Z,100725.67
2023-05-05T09:33:34.327Z,100726.45
2023-05-05T09:35:56.857Z,100727.23
2023-05-05T09:38:16.060Z,100726.73
2023-05-05T09:40:25.386Z,100723.65
2023-05-05T09:42:34.678Z,100726.77
2023-05-05T09:44:44.173Z,100725.73
2023-05-05T09:46:55.771Z,100727.14
2023-05-05T09:49:18.975Z,100736.63
2023-05-05T09:51:33.784Z,100737.77
2023-05-05T09:53:45.802Z,100740.73
2023-05-05T09:55:56.616Z,100744.41
2023-05-05T09:58:24.018Z,100745.22
2023-05-05T10:03:11.253Z,100744.71
2023-05-05T10:05:21.463Z,100749.98
2023-05-05T10:07:30.499Z,100747.59
2023-05-05T10:09:40.256Z,100747.40
2023-05-05T10:11:50.078Z,100751.38
2023-05-05T10:14:00.022Z,100752.33
2023-05-05T10:16:13.965Z,100752.40
2023-05-05T10:18:28.517Z,100750.56
2023-05-05T10:20:40.409Z,100757.58
2023-05-05T10:22:54.828Z,100755.84
2023-05-05T10:25:11.115Z,100759.05
2023-05-05T10:27:22.334Z,100758.63
2023-05-05T10:29:39.194Z,100756.22
2023-05-05T10:31:52.681Z,100757.15
2023-05-05T10:34:07.986Z,100760.69
2023-05-05T10:36:18.525Z,100751.77
2023-05-05T10:38:30.703Z,100751.61
2023-05-05T10:40:40.159Z,100749.18
2023-05-05T10:42:50.565Z,100745.74
2023-05-05T10:44:59.710Z,100742.27
2023-05-05T10:47:09.691Z,100743.14
2023-05-05T10:49:26.431Z,100743.31
2023-05-05T10:51:45.604Z,100740.31
2023-05-05T10:54:00.762Z,100740.95
2023-05-05T10:56:16.818Z,100742.42
2023-05-05T10:58:55.550Z,100745.06
2023-05-05T11:01:09.840Z,100742.40
2023-05-05T11:03:28.001Z,100744.19
2023-05-05T11:05:37.340Z,100747.46
2023-05-05T11:07:47.430Z,100752.62
2023-05-05T11:10:02.622Z,100754.11
2023-05-05T11:12:14.101Z,100755.91
2023-05-05T11:14:26.450Z,100756.83
2023-05-05T11:16:50.354Z,100754.93
2023-05-05T11:18:59.607Z,100751.63
2023-05-05T11:21:16.802Z,100750.77
2023-05-05T11:23:29.485Z,100742.55
2023-05-05T11:25:54.325Z,100744.30
2023-05-05T11:28:10.528Z,100750.66
2023-05-05T11:30:19.879Z,100749.27
2023-05-05T11:32:29.511Z,100750.38
2023-05-05T11:34:49.641Z,100749.35
2023-05-05T11:37:02.764Z,100756.42
2023-05-05T11:39:24.999Z,100750.54
2023-05-05T11:41:53.626Z,100754.62
2023-05-05T11:44:15.051Z,100754.86
2023-05-05T11:46:24.318Z,100759.58
2023-05-05T11:48:33.816Z,100760.82
2023-05-05T11:50:43.295Z,100762.81
2023-05-05T11:52:52.791Z,100758.48
2023-05-05T11:55:09.176Z,100761.91
2023-05-05T11:57:21.476Z,100760.98
2023-05-05T11:59:30.615Z,100759.64
2023-05-05T12:01:42.664Z,100756.40
2023-05-05T12:03:52.323Z,100754.08
2023-05-05T12:06:01.651Z,100751.34
2023-05-05T12:08:11.286Z,100750.92
2023-05-05T12:10:27.852Z,100748.38
2023-05-05T12:12:41.702Z,100745.67
2023-05-05T12:14:53.238Z,100746.52
2023-05-05T12:17:06.869Z,100750.47
2023-05-05T12:19:16.184Z,100754.10
2023-05-05T12:21:25.583Z,100757.95
2023-05-05T12:23:41.298Z,100752.83
2023-05-05T12:25:50.872Z,100752.88
2023-05-05T12:28:00.307Z,100748.31
2023-05-05T12:30:20.943Z,100748.91
2023-05-05T12:32:30.800Z,100749.10
2023-05-05T12:34:40.300Z,100745.95
2023-05-05T12:36:49.643Z,100747.66
2023-05-05T12:38:59.764Z,100748.51
2023-05-05T12:41:09.243Z,100750.83
2023-05-05T12:43:34.920Z,100752.37
2023-05-05T12:45:44.172Z,100753.70
2023-05-05T12:47:53.595Z,100759.33
2023-05-05T12:50:03.839Z,100762.90
2023-05-05T12:52:13.100Z,100764.00
2023-05-05T12:54:23.806Z,100764.06
2023-05-05T12:56:37.974Z,100761.33
2023-05-05T12:58:55.580Z,100763.58
2023-05-05T13:01:13.826Z,100766.48
2023-05-05T13:03:24.395Z,100764.31
2023-05-05T13:05:37.662Z,100763.80
2023-05-05T13:07:56.133Z,100766.10
2023-05-05T13:10:14.205Z,100769.14
2023-05-05T13:12:25.016Z,100770.16
2023-05-05T13:14:35.368Z,100775.11
2023-05-05T13:16:44.605Z,100774.95
2023-05-05T13:18:55.085Z,100775.50
2023-05-05T13:21:04.332Z,100778.84
2023-05-05T13:23:13.473Z,100782.97
2023-05-05T13:25:22.682Z,100781.10
2023-05-05T13:27:32.443Z,100780.27
2023-05-05T13:29:42.067Z,100781.08
2023-05-05T13:31:51.281Z,100781.46
2023-05-05T13:34:00.731Z,100780.69
2023-05-05T13:36:10.868Z,100781.33
2023-05-05T13:38:20.126Z,100783.17
2023-05-05T13:40:29.779Z,100787.02
2023-05-05T13:42:38.902Z,100788.59
2023-05-05T13:44:48.129Z,100785.63
2023-05-05T13:46:57.466Z,100789.92
2023-05-05T13:49:06.683Z,100789.76
2023-05-05T13:51:16.142Z,100789.46
2023-05-05T13:53:25.447Z,100786.81
2023-05-05T13:55:34.760Z,100789.74
2023-05-05T13:57:44.000Z,100790.73
2023-05-05T13:59:53.196Z,100793.09
2023-05-05T14:02:02.761Z,100790.67
2023-05-05T14:04:12.227Z,100795.63
2023-05-05T14:06:21.901Z,100793.18
2023-05-05T14:08:31.277Z,100798.55
2023-05-05T14:10:40.721Z,100802.72
2023-05-05T14:12:49.889Z,100800.66
2023-05-05T14:14:59.126Z,100803.73
2023-05-05T14:17:08.186Z,100803.90
2023-05-05T14:19:17.348Z,100807.89
2023-05-05T14:21:27.046Z,100806.99
2023-05-05T14:23:36.321Z,100809.64
2023-05-05T14:25:45.546Z,100810.77
2023-05-05T14:27:55.556Z,100811.02
2023-05-05T14:30:05.189Z,100815.09
2023-05-05T14:32:15.042Z,100815.70
2023-05-05T14:34:24.369Z,100814.98
2023-05-05T14:36:34.111Z,100815.63
2023-05-05T14:38:43.904Z,100820.80
2023-05-05T14:40:53.072Z,100816.70
2023-05-05T14:43:03.372Z,100815.86
2023-05-05T14:45:14.016Z,100816.50
2023-05-05T14:47:23.439Z,100815.36
2023-05-05T14:49:32.996Z,100818.61
2023-05-05T14:51:43.054Z,100820.26
2023-05-05T14:53:52.098Z,100820.45
2023-05-05T14:56:02.614Z,100822.99
2023-05-05T14:58:12.011Z,100821.19
2023-05-05T15:00:22.274Z,100821.65
2023-05-05T15:02:31.613Z,100823.92
2023-05-05T15:04:41.374Z,100818.31
2023-05-05T15:06:51.081Z,100822.19
2023-05-05T15:09:00.315Z,100817.90
2023-05-05T15:11:09.608Z,100818.73
2023-05-05T15:13:19.211Z,100823.04
2023-05-05T15:15:28.624Z,100823.23
2023-05-05T15:17:39.101Z,100822.38
2023-05-05T15:19:48.390Z,100824.83
2023-05-05T15:21:58.045Z,100825.16
2023-05-05T15:24:07.799Z,100828.09
2023-05-05T15:26:16.884Z,100827.24
2023-05-05T15:28:26.269Z,100827.98
2023-05-05T15:30:35.800Z,100826.21
2023-05-05T15:32:44.986Z,100828.92
2023-05-05T15:34:55.411Z,100830.27
2023-05-05T15:37:04.934Z,100833.91
2023-05-05T15:39:14.202Z,100834.88
2023-05-05T15:41:23.464Z,100836.98
2023-05-05T15:43:32.917Z,100837.88
2023-05-05T15:45:42.433Z,100836.63
2023-05-05T15:47:51.667Z,100836.05
2023-05-05T15:50:01.115Z,100841.33
2023-05-05T15:52:10.466Z,100842.94
2023-05-05T15:54:19.565Z,100840.55
2023-05-05T15:56:29.540Z,100840.32
2023-05-05T15:58:38.765Z,100837.59
2023-05-05T16:00:47.875Z,100833.75
2023-05-05T16:02:57.236Z,100836.04
2023-05-05T16:05:06.976Z,100837.80
2023-05-05T16:07:17.342Z,100834.89
2023-05-05T16:09:26.937Z,100838.16
2023-05-05T16:11:37.522Z,100839.98
2023-05-05T16:13:46.751Z,100835.58
2023-05-05T16:15:56.029Z,100839.23
2023-05-05T16:18:05.699Z,100838.38
2023-05-05T16:20:16.118Z,100836.48
2023-05-05T16:22:25.207Z,100839.67
2023-05-05T16:24:34.778Z,100838.88
2023-05-05T16:26:43.935Z,100839.73
2023-05-05T16:28:53.042Z,100840.15
2023-05-05T16:31:02.535Z,100836.59
2023-05-05T16:33:12.040Z,100836.06
2023-05-05T16:35:21.501Z,100836.79
2023-05-05T16:37:31.280Z,100836.42
2023-05-05T16:39:41.577Z,100832.41
2023-05-05T16:41:50.846Z,100835.79
2023-05-05T16:44:00.332Z,100831.50
2023-05-05T16:46:09.942Z,100835.71
2023-05-05T16:48:19.276Z,100834.85
2023-05-05T16:50:28.817Z,100834.64
2023-05-05T16:52:37.257Z,100836.27
2023-05-05T16:54:47.049Z,100837.23
2023-05-05T16:56:56.322Z,100837.36
2023-05-05T16:59:05.940Z,100841.11
2023-05-05T17:01:15.206Z,100835.18
2023-05-05T17:03:24.500Z,100839.11
2023-05-05T17:05:33.764Z,100838.27
2023-05-05T17:07:43.617Z,100830.80
2023-05-05T17:09:52.953Z,100831.00
2023-05-05T17:12:04.518Z,100829.34
2023-05-05T17:14:13.697Z,100832.81
2023-05-05T17:16:23.149Z,100831.38
2023-05-05T17:18:32.673Z,100826.88
2023-05-05T17:20:41.780Z,100831.41
2023-05-05T17:22:51.534Z,100828.33
2023-05-05T17:25:00.855Z,100831.57
2023-05-05T17:27:10.149Z,100828.06
2023-05-05T17:29:20.207Z,100833.55
2023-05-05T17:31:29.751Z,100825.27
2023-05-05T17:33:39.385Z,100828.08
2023-05-05T17:35:48.730Z,100828.76
2023-05-05T17:38:00.886Z,100833.31
2023-05-05T17:40:11.736Z,100837.45
2023-05-05T17:42:23.300Z,100833.35
2023-05-05T17:44:33.059Z,100837.06
2023-05-05T17:46:42.269Z,100837.83
2023-05-05T17:48:51.477Z,100836.08
2023-05-05T17:51:01.135Z,100837.26
2023-05-05T17:53:10.974Z,100838.52
2023-05-05T17:55:20.492Z,100840.21
2023-05-05T17:57:29.787Z,100841.89
2023-05-05T17:59:39.094Z,100843.40
2023-05-05T18:01:48.308Z,100842.86
2023-05-05T18:03:57.893Z,100847.02
2023-05-05T18:06:07.543Z,100851.48
2023-05-05T18:08:17.004Z,100849.30
2023-05-05T18:10:26.509Z,100850.64
2023-05-05T18:12:35.909Z,100848.65
2023-05-05T18:14:45.324Z,100852.91
2023-05-05T18:16:54.791Z,100851.98
2023-05-05T18:19:04.368Z,100853.00
2023-05-05T18:21:13.533Z,100853.45
2023-05-05T18:23:22.825Z,100852.84
2023-05-05T18:25:32.790Z,100852.43
2023-05-05T18:27:44.205Z,100852.79
2023-05-05T18:29:53.562Z,100853.89
2023-05-05T18:32:03.328Z,100852.19
2023-05-05T18:34:12.569Z,100852.39
2023-05-05T18:36:21.697Z,100849.73
2023-05-05T18:38:31.414Z,100851.04
2023-05-05T18:40:40.705Z,100850.57
2023-05-05T18:42:49.809Z,100851.08
2023-05-05T18:44:58.801Z,100856.39
2023-05-05T18:47:08.589Z,100853.38
2023-05-05T18:49:17.890Z,100851.97
2023-05-05T18:51:27.129Z,100851.42
2023-05-05T18:53:37.081Z,100854.72
2023-05-05T18:55:47.370Z,100854.15
2023-05-05T18:57:56.452Z,100857.45
2023-05-05T19:00:06.152Z,100860.56
2023-05-05T19:02:15.211Z,100861.91
2023-05-05T19:04:30.868Z,100861.88
2023-05-05T19:06:42.047Z,100864.27
2023-05-05T19:08:51.746Z,100865.89
2023-05-05T19:11:01.058Z,100867.77
2023-05-05T19:13:11.315Z,100869.34
2023-05-05T19:15:21.164Z,100869.98
2023-05-05T19:17:30.722Z,100868.70
2023-05-05T19:19:40.171Z,100869.80
2023-05-05T19:21:49.489Z,100870.40
2023-05-05T19:23:58.856Z,100873.94
2023-05-05T19:26:08.248Z,100872.20
2023-05-05T19:28:17.354Z,100872.45
2023-05-05T19:30:26.922Z,100875.03
2023-05-05T19:32:36.449Z,100874.08
2023-05-05T19:34:46.354Z,100873.94
2023-05-05T19:36:55.702Z,100873.20
2023-05-05T19:39:06.493Z,100871.13
2023-05-05T19:41:18.114Z,100868.40
2023-05-05T19:43:27.335Z,100868.15
2023-05-05T19:45:36.955Z,100867.27
2023-05-05T19:47:46.553Z,100866.58
2023-05-05T19:49:55.692Z,100863.29
2023-05-05T19:52:05.169Z,100859.02
2023-05-05T19:54:14.348Z,100860.36
2023-05-05T19:56:23.570Z,100866.45
2023-05-05T19:58:32.753Z,100863.98
2023-05-05T20:00:42.104Z,100865.91
2023-05-05T20:02:51.285Z,100861.83
2023-05-05T20:05:00.464Z,100862.88
2023-05-05T20:07:09.857Z,100862.64
2023-05-05T20:09:19.456Z,100862.59
2023-05-05T20:11:29.974Z,100859.41
2023-05-05T20:13:39.559Z,100861.59
2023-05-05T20:15:48.806Z,100863.95
2023-05-05T20:17:57.900Z,100862.67
2023-05-05T20:20:08.290Z,100866.47
2023-05-05T20:22:17.482Z,100865.90
2023-05-05T20:24:26.702Z,100862.85
2023-05-05T20:26:37.022Z,100861.88
2023-05-05T20:28:46.368Z,100860.19
2023-05-05T20:30:55.487Z,100858.74
2023-05-05T20:33:04.969Z,100859.73
2023-05-05T20:35:14.539Z,100862.85
2023-05-05T20:37:23.771Z,100862.13
2023-05-05T20:39:33.594Z,100860.81
2023-05-05T20:41:42.695Z,100861.13
2023-05-05T20:43:51.771Z,100860.83
2023-05-05T20:46:01.206Z,100860.00
2023-05-05T20:48:11.673Z,100857.86
2023-05-05T20:50:21.836Z,100861.28
2023-05-05T20:52:31.012Z,100858.59
2023-05-05T20:54:40.548Z,100857.27
2023-05-05T20:56:49.680Z,100856.67
2023-05-05T20:58:58.872Z,100857.34
2023-05-05T21:01:08.148Z,100858.87
2023-05-05T21:03:17.351Z,100857.58
2023-05-05T21:05:27.150Z,100863.57
2023-05-05T21:07:36.919Z,100863.11
2023-05-05T21:09:49.685Z,100864.39
2023-05-05T21:11:58.855Z,100867.62
2023-05-05T21:14:08.818Z,100865.70
2023-05-05T21:16:18.008Z,100870.10
2023-05-05T21:18:27.948Z,100868.02
2023-05-05T21:20:37.141Z,100868.55
2023-05-05T21:22:46.413Z,100869.11
2023-05-05T21:24:55.729Z,100867.12
2023-05-05T21:27:05.319Z,100870.73
2023-05-05T21:29:14.954Z,100867.56
2023-05-05T21:31:24.088Z,100875.54
2023-05-05T21:33:33.387Z,100876.65
2023-05-05T21:35:42.737Z,100877.37
2023-05-05T21:37:52.423Z,100878.80
2023-05-05T21:40:02.264Z,100877.69
2023-05-05T21:42:11.901Z,100877.53
2023-05-05T21:44:21.011Z,100877.02
2023-05-05T21:46:30.243Z,100878.65
2023-05-05T21:48:41.638Z,100878.27
2023-05-05T21:50:50.858Z,100879.05
2023-05-05T21:52:59.982Z,100875.09
2023-05-05T21:55:11.300Z,100879.74
2023-05-05T21:57:20.401Z,100878.77
2023-05-05T21:59:29.704Z,100877.80
2023-05-05T22:01:39.340Z,100878.27
2023-05-05T22:03:48.798Z,100880.71
2023-05-05T22:05:57.940Z,100882.14
2023-05-05T22:08:07.413Z,100881.89
2023-05-05T22:10:17.139Z,100884.48
2023-05-05T22:12:26.373Z,100879.93
2023-05-05T22:14:36.285Z,100881.50
2023-05-05T22:16:45.510Z,100883.66
2023-05-05T22:18:54.758Z,100881.35
2023-05-05T22:21:04.961Z,100883.01
2023-05-05T22:23:14.790Z,100881.91
2023-05-05T22:25:24.179Z,100887.54
2023-05-05T22:27:33.250Z,100882.27
2023-05-05T22:29:42.705Z,100880.85
2023-05-05T22:31:51.849Z,100879.08
2023-05-05T22:34:01.250Z,100878.75
2023-05-05T22:36:11.908Z,100880.41
2023-05-05T22:38:21.025Z,100878.99
2023-05-05T22:40:30.494Z,100882.70
2023-05-05T22:42:40.047Z,100881.55
2023-05-05T22:44:49.572Z,100878.38
2023-05-05T22:46:59.272Z,100883.45
2023-05-05T22:49:08.962Z,100885.39
2023-05-05T22:51:18.286Z,100885.43
2023-05-05T22:53:27.532Z,100893.45
2023-05-05T22:55:37.476Z,100893.11
2023-05-05T22:57:46.678Z,100891.84
2023-05-05T22:59:56.240Z,100890.31
2023-05-05T23:02:05.623Z,100893.04
2023-05-05T23:04:14.940Z,100890.88
2023-05-05T23:06:24.244Z,100892.04
2023-05-05T23:08:33.551Z,100895.25
2023-05-05T23:10:43.321Z,100892.66
2023-05-05T23:12:52.506Z,100891.17
2023-05-05T23:15:01.778Z,100888.91
2023-05-05T23:17:13.956Z,100889.83
2023-05-05T23:19:23.219Z,100891.11
2023-05-05T23:21:36.262Z,100894.08
2023-05-05T23:23:51.428Z,100889.34
2023-05-05T23:26:00.562Z,100890.28
2023-05-05T23:28:10.610Z,100886.91
2023-05-05T23:30:20.322Z,100885.63
2023-05-05T23:32:29.550Z,100890.55
2023-05-05T23:34:38.925Z,100889.58
2023-05-05T23:36:48.180Z,100888.50
2023-05-05T23:38:57.473Z,100887.98
2023-05-05T23:41:07.528Z,100883.57
2023-05-05T23:43:16.636Z,100885.61
2023-05-05T23:45:25.708Z,100883.25
2023-05-05T23:47:34.891Z,100884.05
2023-05-05T23:49:44.196Z,100886.36
2023-05-05T23:51:53.368Z,100893.60
2023-05-05T23:54:02.551Z,100896.90
2023-05-05T23:56:12.577Z,100902.25
2023-05-05T23:58:21.621Z,100903.17
